createdAt,value
2022-08-03T00:01:49.474Z,98476.97
2022-08-03T00:04:16.407Z,98475.00
2022-08-03T00:06:43.062Z,98482.13
2022-08-03T00:09:10.338Z,98471.34
2022-08-03T00:11:37.439Z,98471.13
2022-08-03T00:14:05.266Z,98469.41
2022-08-03T00:16:31.935Z,98473.19
2022-08-03T00:18:58.685Z,98470.69
2022-08-03T00:21:28.053Z,98467.16
2022-08-03T00:23:54.693Z,98468.13
2022-08-03T00:26:21.870Z,98469.53
2022-08-03T00:28:49.132Z,98458.97
2022-08-03T00:31:16.147Z,98470.78
2022-08-03T00:33:59.045Z,98464.66
2022-08-03T00:36:27.761Z,98464.88
2022-08-03T00:38:55.137Z,98463.34
2022-08-03T00:41:21.709Z,98462.94
2022-08-03T00:43:48.504Z,98463.50
2022-08-03T00:46:19.214Z,98467.19
2022-08-03T00:48:49.567Z,98461.97
2022-08-03T00:51:16.574Z,98464.59
2022-08-03T00:53:43.583Z,98455.94
2022-08-03T00:56:14.070Z,98450.69
2022-08-03T00:58:41.136Z,98453.47
2022-08-03T01:01:07.721Z,98458.75
2022-08-03T01:03:34.514Z,98453.81
2022-08-03T01:06:12.819Z,98453.81
2022-08-03T01:08:58.673Z,98452.28
2022-08-03T01:11:33.992Z,98459.28
2022-08-03T01:14:18.838Z,98449.06
2022-08-03T01:16:59.311Z,98444.94
2022-08-03T01:19:50.618Z,98439.44
2022-08-03T01:22:29.146Z,98441.69
2022-08-03T01:24:58.479Z,98442.63
2022-08-03T01:27:31.670Z,98440.06
2022-08-03T01:30:10.056Z,98432.66
2022-08-03T01:33:02.784Z,98432.94
2022-08-03T01:35:42.299Z,98428.31
2022-08-03T01:38:15.667Z,98432.09
2022-08-03T01:40:44.839Z,98432.28
2022-08-03T01:44:27.263Z,98427.00
2022-08-03T01:46:04.212Z,98426.47
2022-08-03T01:48:32.129Z,98424.84
2022-08-03T01:51:00.101Z,98422.19
2022-08-03T01:53:27.997Z,98424.38
2022-08-03T01:55:57.351Z,98420.38
2022-08-03T01:58:24.883Z,98421.66
2022-08-03T02:00:52.987Z,98421.53
2022-08-03T02:03:23.186Z,98423.56
2022-08-03T02:06:06.114Z,98412.94
2022-08-03T02:08:41.814Z,98411.69
2022-08-03T02:11:08.439Z,98417.69
2022-08-03T02:13:35.530Z,98415.19
2022-08-03T02:16:03.960Z,98419.78
2022-08-03T02:18:32.666Z,98411.19
2022-08-03T02:21:02.380Z,98413.00
2022-08-03T02:23:38.190Z,98410.31
2022-08-03T02:26:06.921Z,98411.72
2022-08-03T02:28:37.173Z,98411.06
2022-08-03T02:31:07.977Z,98413.75
2022-08-03T02:33:38.971Z,98414.03
2022-08-03T02:36:07.917Z,98412.34
2022-08-03T02:38:38.912Z,98408.88
2022-08-03T02:41:08.976Z,98410.59
2022-08-03T02:43:41.267Z,98412.13
2022-08-03T02:46:30.355Z,98410.50
2022-08-03T02:48:58.797Z,98406.47
2022-08-03T02:51:29.991Z,98405.63
2022-08-03T02:54:00.426Z,98410.50
2022-08-03T02:56:30.927Z,98408.47
2022-08-03T02:58:59.535Z,98406.28
2022-08-03T03:01:29.019Z,98404.09
2022-08-03T03:03:57.577Z,98409.63
2022-08-03T03:06:26.832Z,98399.28
2022-08-03T03:08:59.801Z,98410.22
2022-08-03T03:11:27.248Z,98409.41
2022-08-03T03:13:56.926Z,98410.69
2022-08-03T03:16:26.016Z,98409.50
2022-08-03T03:18:54.415Z,98414.22
2022-08-03T03:21:22.107Z,98410.06
2022-08-03T03:23:49.315Z,98414.22
2022-08-03T03:26:16.433Z,98410.06
2022-08-03T03:28:43.870Z,98412.03
2022-08-03T03:31:11.530Z,98411.47
2022-08-03T03:33:39.017Z,98410.47
2022-08-03T03:36:07.043Z,98412.59
2022-08-03T03:38:33.856Z,98414.50
2022-08-03T03:41:01.159Z,98409.91
2022-08-03T03:43:29.329Z,98415.06
2022-08-03T03:45:57.236Z,98418.88
2022-08-03T03:48:25.083Z,98409.09
2022-08-03T03:50:51.904Z,98414.28
2022-08-03T03:53:18.557Z,98407.06
2022-08-03T03:56:01.838Z,98395.03
2022-08-03T03:58:30.622Z,98405.69
2022-08-03T04:00:57.289Z,98394.94
2022-08-03T04:03:23.978Z,98409.69
2022-08-03T04:06:09.186Z,98403.19
2022-08-03T04:08:54.577Z,98402.06
2022-08-03T04:11:34.636Z,98398.56
2022-08-03T04:14:18.950Z,98415.66
2022-08-03T04:16:53.528Z,98409.59
2022-08-03T04:19:28.215Z,98402.25
2022-08-03T04:22:00.599Z,98398.94
2022-08-03T04:24:41.468Z,98410.56
2022-08-03T04:27:12.750Z,98397.03
2022-08-03T04:29:48.261Z,98414.38
2022-08-03T04:32:17.042Z,98420.00
2022-08-03T04:34:44.220Z,98417.91
2022-08-03T04:37:34.070Z,98417.28
2022-08-03T04:40:03.080Z,98421.78
2022-08-03T04:42:33.218Z,98425.16
2022-08-03T04:45:01.793Z,98418.53
2022-08-03T04:47:32.160Z,98420.78
2022-08-03T04:50:01.061Z,98420.13
2022-08-03T04:52:27.807Z,98425.34
2022-08-03T04:54:54.435Z,98426.78
2022-08-03T04:57:22.697Z,98431.75
2022-08-03T05:00:02.695Z,98426.78
2022-08-03T05:02:31.359Z,98429.88
2022-08-03T05:04:58.320Z,98436.88
2022-08-03T05:07:25.356Z,98445.31
2022-08-03T05:09:57.486Z,98437.75
2022-08-03T05:12:32.296Z,98440.72
2022-08-03T05:14:59.967Z,98442.84
2022-08-03T05:17:26.723Z,98439.47
2022-08-03T05:19:53.525Z,98440.91
2022-08-03T05:22:20.805Z,98440.31
2022-08-03T05:24:47.446Z,98431.41
2022-08-03T05:27:19.136Z,98436.50
2022-08-03T05:29:46.609Z,98433.88
2022-08-03T05:32:13.301Z,98431.69
2022-08-03T05:34:39.876Z,98427.28
2022-08-03T05:37:07.367Z,98426.28
2022-08-03T05:39:35.184Z,98422.09
2022-08-03T05:42:02.360Z,98417.94
2022-08-03T05:44:29.126Z,98421.00
2022-08-03T05:46:57.984Z,98411.31
2022-08-03T05:49:24.564Z,98408.75
2022-08-03T05:52:00.106Z,98412.34
2022-08-03T05:54:57.162Z,98411.75
2022-08-03T05:57:27.594Z,98417.03
2022-08-03T05:59:58.245Z,98416.16
2022-08-03T06:02:26.799Z,98411.47
2022-08-03T06:04:54.081Z,98423.91
2022-08-03T06:07:20.677Z,98420.44
2022-08-03T06:10:35.020Z,98408.09
2022-08-03T06:12:37.162Z,98414.34
2022-08-03T06:15:05.175Z,98414.13
2022-08-03T06:17:37.292Z,98403.78
2022-08-03T06:20:05.849Z,98404.59
2022-08-03T06:22:32.494Z,98413.78
2022-08-03T06:24:59.027Z,98413.38
2022-08-03T06:27:37.052Z,98406.31
2022-08-03T06:30:05.039Z,98420.88
2022-08-03T06:32:32.331Z,98414.38
2022-08-03T06:34:58.981Z,98412.91
2022-08-03T06:37:27.008Z,98409.69
2022-08-03T06:39:54.188Z,98413.97
2022-08-03T06:42:21.020Z,98408.53
2022-08-03T06:44:49.524Z,98410.38
2022-08-03T06:47:16.059Z,98409.28
2022-08-03T06:49:42.745Z,98412.78
2022-08-03T06:52:09.338Z,98407.31
2022-08-03T06:54:36.301Z,98405.69
2022-08-03T06:57:03.677Z,98399.16
2022-08-03T07:00:09.903Z,98400.94
2022-08-03T07:02:19.318Z,98400.25
2022-08-03T07:04:49.768Z,98405.34
2022-08-03T07:07:17.412Z,98405.75
2022-08-03T07:09:56.922Z,98405.06
2022-08-03T07:12:24.462Z,98403.72
2022-08-03T07:14:51.091Z,98400.78
2022-08-03T07:17:18.654Z,98401.81
2022-08-03T07:19:45.385Z,98405.84
2022-08-03T07:22:12.051Z,98401.41
2022-08-03T07:24:38.847Z,98408.47
2022-08-03T07:27:05.497Z,98403.69
2022-08-03T07:29:34.733Z,98415.53
2022-08-03T07:32:02.080Z,98410.63
2022-08-03T07:34:28.951Z,98405.25
2022-08-03T07:36:55.686Z,98406.25
2022-08-03T07:39:22.186Z,98408.34
2022-08-03T07:41:51.417Z,98392.97
2022-08-03T07:44:21.011Z,98407.16
2022-08-03T07:46:47.602Z,98399.38
2022-08-03T07:49:14.224Z,98400.00
2022-08-03T07:51:40.880Z,98401.94
2022-08-03T07:54:07.748Z,98397.16
2022-08-03T07:56:34.304Z,98396.47
2022-08-03T07:59:02.354Z,98397.94
2022-08-03T08:01:29.424Z,98397.19
2022-08-03T08:03:56.041Z,98397.44
2022-08-03T08:06:22.632Z,98389.38
2022-08-03T08:08:49.155Z,98388.19
2022-08-03T08:11:15.965Z,98388.66
2022-08-03T08:13:42.563Z,98391.06
2022-08-03T08:16:09.117Z,98383.38
2022-08-03T08:18:35.738Z,98391.53
2022-08-03T08:21:03.362Z,98386.31
2022-08-03T08:23:42.076Z,98392.63
2022-08-03T08:26:09.686Z,98390.31
2022-08-03T08:28:36.247Z,98387.88
2022-08-03T08:31:02.830Z,98391.50
2022-08-03T08:33:48.075Z,98391.91
2022-08-03T08:36:16.134Z,98391.53
2022-08-03T08:38:44.842Z,98391.47
2022-08-03T08:41:13.235Z,98385.22
2022-08-03T08:43:40.291Z,98382.19
2022-08-03T08:46:10.194Z,98386.06
2022-08-03T08:48:41.811Z,98385.66
2022-08-03T08:51:11.486Z,98381.13
2022-08-03T08:53:41.110Z,98387.09
2022-08-03T08:56:10.266Z,98389.38
2022-08-03T08:58:50.077Z,98390.94
2022-08-03T09:01:21.865Z,98382.81
2022-08-03T09:03:48.660Z,98384.25
2022-08-03T09:06:15.314Z,98384.69
2022-08-03T09:08:42.047Z,98382.13
2022-08-03T09:11:08.864Z,98377.41
2022-08-03T09:13:39.035Z,98377.34
2022-08-03T09:16:22.877Z,98384.44
2022-08-03T09:18:52.263Z,98377.59
2022-08-03T09:21:37.526Z,98384.69
2022-08-03T09:24:13.042Z,98375.31
2022-08-03T09:26:50.974Z,98369.81
2022-08-03T09:29:20.609Z,98356.31
2022-08-03T09:31:47.354Z,98365.28
2022-08-03T09:34:17.123Z,98361.59
2022-08-03T09:36:49.220Z,98350.00
2022-08-03T09:39:41.770Z,98344.41
2022-08-03T09:42:10.933Z,98351.25
2022-08-03T09:44:42.368Z,98344.91
2022-08-03T09:47:10.468Z,98345.44
2022-08-03T09:49:38.805Z,98344.47
2022-08-03T09:52:39.324Z,98339.78
2022-08-03T09:56:32.842Z,98343.50
2022-08-03T09:58:07.184Z,98340.84
2022-08-03T10:00:54.017Z,98331.63
2022-08-03T10:03:20.971Z,98339.22
2022-08-03T10:05:47.534Z,98335.13
2022-08-03T10:08:19.112Z,98326.88
2022-08-03T10:10:47.761Z,98326.44
2022-08-03T10:13:15.918Z,98326.72
2022-08-03T10:16:23.718Z,98321.19
2022-08-03T10:18:29.426Z,98322.50
2022-08-03T10:21:03.201Z,98325.94
2022-08-03T10:23:34.466Z,98320.03
2022-08-03T10:26:04.341Z,98324.84
2022-08-03T10:28:59.575Z,98318.81
2022-08-03T10:31:31.706Z,98321.16
2022-08-03T10:34:00.330Z,98316.72
2022-08-03T10:36:30.380Z,98320.00
2022-08-03T10:38:57.754Z,98318.22
2022-08-03T10:41:30.091Z,98314.25
2022-08-03T10:44:02.970Z,98303.81
2022-08-03T10:46:29.620Z,98299.00
2022-08-03T10:48:56.774Z,98293.47
2022-08-03T10:51:24.261Z,98296.94
2022-08-03T10:53:54.597Z,98291.22
2022-08-03T10:56:54.433Z,98297.53
2022-08-03T10:59:45.930Z,98292.84
2022-08-03T11:02:14.208Z,98294.50
2022-08-03T11:04:41.691Z,98296.31
2022-08-03T11:07:17.722Z,98286.16
2022-08-03T11:09:48.365Z,98282.59
2022-08-03T11:12:32.502Z,98281.03
2022-08-03T11:15:02.188Z,98276.22
2022-08-03T11:17:28.989Z,98277.16
2022-08-03T11:19:56.831Z,98269.84
2022-08-03T11:22:25.477Z,98270.28
2022-08-03T11:24:54.218Z,98269.72
2022-08-03T11:27:32.015Z,98269.66
2022-08-03T11:30:09.042Z,98273.28
2022-08-03T11:32:46.879Z,98267.25
2022-08-03T11:35:16.263Z,98271.38
2022-08-03T11:38:03.362Z,98271.97
2022-08-03T11:40:52.552Z,98262.81
2022-08-03T11:43:21.811Z,98267.03
2022-08-03T11:46:06.186Z,98264.53
2022-08-03T11:48:43.869Z,98260.94
2022-08-03T11:51:23.398Z,98267.19
2022-08-03T11:53:57.765Z,98254.94
2022-08-03T11:56:25.355Z,98258.03
2022-08-03T11:58:58.163Z,98266.44
2022-08-03T12:01:41.866Z,98251.03
2022-08-03T12:04:08.516Z,98258.13
2022-08-03T12:06:54.700Z,98249.03
2022-08-03T12:09:21.960Z,98250.47
2022-08-03T12:11:59.699Z,98247.88
2022-08-03T12:14:50.112Z,98254.91
2022-08-03T12:17:15.034Z,98244.84
2022-08-03T12:19:42.853Z,98246.41
2022-08-03T12:22:09.490Z,98251.25
2022-08-03T12:24:43.546Z,98247.78
2022-08-03T12:27:10.114Z,98240.44
2022-08-03T12:29:37.007Z,98247.22
2022-08-03T12:32:03.850Z,98238.78
2022-08-03T12:34:47.688Z,98239.31
2022-08-03T12:37:20.262Z,98239.84
2022-08-03T12:40:02.213Z,98245.59
2022-08-03T12:42:34.946Z,98244.03
2022-08-03T12:45:20.536Z,98244.25
2022-08-03T12:48:01.701Z,98240.28
2022-08-03T12:50:31.420Z,98235.63
2022-08-03T12:53:00.178Z,98236.00
2022-08-03T12:55:57.690Z,98234.69
2022-08-03T12:58:35.610Z,98242.78
2022-08-03T13:01:05.311Z,98244.91
2022-08-03T13:03:45.690Z,98241.28
2022-08-03T13:06:19.852Z,98240.09
2022-08-03T13:08:47.948Z,98239.72
2022-08-03T13:11:22.676Z,98232.78
2022-08-03T13:13:50.699Z,98239.19
2022-08-03T13:16:19.425Z,98233.19
2022-08-03T13:18:48.816Z,98225.28
2022-08-03T13:21:20.423Z,98229.44
2022-08-03T13:23:47.236Z,98228.66
2022-08-03T13:26:13.883Z,98228.28
2022-08-03T13:28:40.424Z,98221.13
2022-08-03T13:31:07.172Z,98220.00
2022-08-03T13:33:34.234Z,98236.31
2022-08-03T13:36:00.872Z,98219.16
2022-08-03T13:38:27.555Z,98219.59
2022-08-03T13:40:55.155Z,98220.28
2022-08-03T13:43:22.514Z,98226.66
2022-08-03T13:45:53.556Z,98218.16
2022-08-03T13:48:37.080Z,98213.34
2022-08-03T13:51:11.712Z,98210.19
2022-08-03T13:53:49.479Z,98209.53
2022-08-03T13:56:16.059Z,98205.25
2022-08-03T13:58:42.617Z,98204.69
2022-08-03T14:01:09.257Z,98196.28
2022-08-03T14:03:35.973Z,98199.25
2022-08-03T14:06:02.583Z,98197.34
2022-08-03T14:08:29.350Z,98198.81
2022-08-03T14:10:56.060Z,98195.19
2022-08-03T14:13:23.160Z,98192.78
2022-08-03T14:15:51.171Z,98189.78
2022-08-03T14:18:27.598Z,98185.69
2022-08-03T14:21:01.998Z,98183.59
2022-08-03T14:23:32.559Z,98188.06
2022-08-03T14:25:59.638Z,98181.56
2022-08-03T14:28:26.239Z,98178.38
2022-08-03T14:30:54.490Z,98179.19
2022-08-03T14:33:21.404Z,98180.94
2022-08-03T14:35:48.666Z,98182.00
2022-08-03T14:38:15.491Z,98182.59
2022-08-03T14:40:42.115Z,98178.16
2022-08-03T14:43:08.976Z,98161.81
2022-08-03T14:45:35.584Z,98166.94
2022-08-03T14:50:30.492Z,98167.84
2022-08-03T14:50:52.551Z,98173.56
2022-08-03T14:53:19.904Z,98172.28
2022-08-03T14:55:50.310Z,98168.84
2022-08-03T14:58:20.775Z,98155.53
2022-08-03T15:00:49.160Z,98163.81
2022-08-03T15:03:16.935Z,98150.03
2022-08-03T15:05:44.329Z,98148.75
2022-08-03T15:08:11.049Z,98146.59
2022-08-03T15:10:40.466Z,98145.56
2022-08-03T15:13:14.724Z,98143.03
2022-08-03T15:15:42.018Z,98137.47
2022-08-03T15:18:08.847Z,98140.47
2022-08-03T15:20:51.076Z,98133.41
2022-08-03T15:23:18.569Z,98125.38
2022-08-03T15:26:28.639Z,98133.22
2022-08-03T15:28:32.590Z,98115.84
2022-08-03T15:31:01.105Z,98124.28
2022-08-03T15:33:28.391Z,98126.00
2022-08-03T15:35:56.161Z,98117.06
2022-08-03T15:38:26.534Z,98114.97
2022-08-03T15:40:54.534Z,98110.72
2022-08-03T15:43:22.036Z,98110.28
2022-08-03T15:45:51.903Z,98107.53
2022-08-03T15:48:26.616Z,98113.03
2022-08-03T15:50:54.519Z,98113.66
2022-08-03T15:53:21.129Z,98117.50
2022-08-03T15:55:47.653Z,98110.72
2022-08-03T15:59:09.726Z,98113.69
2022-08-03T16:01:02.198Z,98105.84
2022-08-03T16:03:34.281Z,98107.09
2022-08-03T16:06:05.350Z,98104.34
2022-08-03T16:08:32.501Z,98096.50
2022-08-03T16:10:59.668Z,98106.25
2022-08-03T16:14:13.350Z,98107.06
2022-08-03T16:16:13.915Z,98105.59
2022-08-03T16:18:40.476Z,98114.25
2022-08-03T16:21:07.047Z,98104.31
2022-08-03T16:23:39.587Z,98102.59
2022-08-03T16:26:09.424Z,98097.06
2022-08-03T16:28:38.065Z,98097.69
2022-08-03T16:31:06.025Z,98102.34
2022-08-03T16:33:33.436Z,98100.44
2022-08-03T16:36:00.405Z,98094.50
2022-08-03T16:38:27.161Z,98103.56
2022-08-03T16:40:53.711Z,98097.97
2022-08-03T16:43:24.763Z,98101.56
2022-08-03T16:45:51.737Z,98103.44
2022-08-03T16:48:19.054Z,98101.13
2022-08-03T16:50:46.052Z,98097.66
2022-08-03T16:53:16.918Z,98095.53
2022-08-03T16:55:52.326Z,98090.09
2022-08-03T16:58:34.335Z,98088.84
2022-08-03T17:01:24.431Z,98098.78
2022-08-03T17:04:02.952Z,98087.50
2022-08-03T17:06:35.522Z,98097.81
2022-08-03T17:09:08.709Z,98094.00
2022-08-03T17:11:37.232Z,98083.03
2022-08-03T17:14:09.220Z,98092.56
2022-08-03T17:16:38.272Z,98092.97
2022-08-03T17:19:07.184Z,98084.72
2022-08-03T17:21:39.068Z,98092.09
2022-08-03T17:24:12.371Z,98089.16
2022-08-03T17:26:45.803Z,98084.66
2022-08-03T17:29:19.041Z,98081.88
2022-08-03T17:31:54.167Z,98083.31
2022-08-03T17:34:26.299Z,98083.31
2022-08-03T17:37:12.010Z,98083.84
2022-08-03T17:39:58.319Z,98086.19
2022-08-03T17:42:31.368Z,98085.75
2022-08-03T17:45:02.173Z,98088.94
2022-08-03T17:47:41.785Z,98098.97
2022-08-03T17:50:24.702Z,98090.75
2022-08-03T17:56:04.787Z,98096.31
2022-08-03T17:58:42.089Z,98098.19
2022-08-03T18:01:57.429Z,98101.97
2022-08-03T18:04:30.235Z,98098.38
2022-08-03T18:06:59.564Z,98111.00
2022-08-03T18:10:04.141Z,98105.81
2022-08-03T18:12:26.974Z,98105.34
2022-08-03T18:15:01.271Z,98106.97
2022-08-03T18:17:55.552Z,98110.25
2022-08-03T18:20:34.113Z,98110.94
2022-08-03T18:23:08.777Z,98107.88
2022-08-03T18:25:45.251Z,98110.94
2022-08-03T18:28:16.425Z,98108.84
2022-08-03T18:30:53.382Z,98109.72
2022-08-03T18:36:17.254Z,98109.41
2022-08-03T18:38:47.412Z,98120.19
2022-08-03T18:41:20.694Z,98114.09
2022-08-03T18:44:06.740Z,98118.09
2022-08-03T18:46:54.343Z,98113.38
2022-08-03T18:49:35.871Z,98112.78
2022-08-03T18:52:17.845Z,98114.25
2022-08-03T18:55:02.320Z,98115.53
2022-08-03T18:57:48.538Z,98122.47
2022-08-03T19:00:17.343Z,98121.53
2022-08-03T19:03:02.669Z,98115.44
2022-08-03T19:05:53.694Z,98128.97
2022-08-03T19:08:53.852Z,98126.84
2022-08-03T19:12:12.336Z,98128.59
2022-08-03T19:14:28.748Z,98122.34
2022-08-03T19:17:08.732Z,98130.91
2022-08-03T19:19:43.960Z,98125.13
2022-08-03T19:22:16.090Z,98138.66
2022-08-03T19:24:45.769Z,98129.44
2022-08-03T19:27:13.438Z,98133.03
2022-08-03T19:29:59.859Z,98140.41
2022-08-03T19:32:29.442Z,98135.47
2022-08-03T19:34:57.055Z,98138.88
2022-08-03T19:37:38.355Z,98138.72
2022-08-03T19:40:10.444Z,98136.47
2022-08-03T19:42:42.926Z,98140.22
2022-08-03T19:45:15.430Z,98138.69
2022-08-03T19:47:47.440Z,98135.28
2022-08-03T19:50:15.787Z,98147.75
2022-08-03T19:52:47.629Z,98148.91
2022-08-03T19:55:15.845Z,98149.91
2022-08-03T19:57:46.005Z,98156.38
2022-08-03T20:00:14.207Z,98163.31
2022-08-03T20:02:42.036Z,98149.56
2022-08-03T20:05:11.937Z,98160.09
2022-08-03T20:07:42.595Z,98159.72
2022-08-03T20:10:15.842Z,98153.59
2022-08-03T20:12:44.781Z,98150.00
2022-08-03T20:15:12.147Z,98154.09
2022-08-03T20:17:56.220Z,98149.97
2022-08-03T20:20:36.532Z,98144.78
2022-08-03T20:23:18.058Z,98147.00
2022-08-03T20:25:58.673Z,98153.75
2022-08-03T20:28:29.036Z,98151.16
2022-08-03T20:30:56.418Z,98156.53
2022-08-03T20:33:27.915Z,98141.38
2022-08-03T20:36:10.434Z,98145.56
2022-08-03T20:38:43.840Z,98140.75
2022-08-03T20:41:14.821Z,98149.06
2022-08-03T20:43:41.695Z,98143.47
2022-08-03T20:46:32.188Z,98141.22
2022-08-03T20:48:57.151Z,98137.50
2022-08-03T20:51:50.697Z,98142.63
2022-08-03T20:54:23.034Z,98138.84
2022-08-03T20:56:58.207Z,98135.13
2022-08-03T20:59:35.086Z,98138.03
2022-08-03T21:02:19.604Z,98138.72
2022-08-03T21:04:56.148Z,98135.53
2022-08-03T21:07:24.095Z,98136.31
2022-08-03T21:09:52.736Z,98128.00
2022-08-03T21:12:33.735Z,98130.97
2022-08-03T21:12:55.594Z,98089.84
2022-08-03T21:12:58.400Z,98113.75
2022-08-03T21:15:06.140Z,98128.50
2022-08-03T21:17:41.991Z,98129.53
2022-08-03T21:20:11.719Z,98134.56
2022-08-03T21:22:39.631Z,98136.34
2022-08-03T21:25:09.258Z,98132.44
2022-08-03T21:27:37.412Z,98139.97
2022-08-03T21:30:10.253Z,98136.94
2022-08-03T21:32:40.149Z,98138.44
2022-08-03T21:35:09.496Z,98133.13
2022-08-03T21:37:37.314Z,98140.75
2022-08-03T21:40:04.341Z,98134.31
2022-08-03T21:42:30.913Z,98136.16
2022-08-03T21:44:57.472Z,98130.19
2022-08-03T21:47:24.802Z,98138.31
2022-08-03T21:50:07.205Z,98126.75
2022-08-03T21:52:41.138Z,98131.41
2022-08-03T21:55:08.653Z,98133.59
2022-08-03T21:57:51.616Z,98127.91
2022-08-03T22:00:20.498Z,98133.91
2022-08-03T22:02:58.273Z,98132.91
2022-08-03T22:05:43.060Z,98131.47
2022-08-03T22:08:13.601Z,98135.13
2022-08-03T22:10:43.426Z,98136.72
2022-08-03T22:13:11.633Z,98134.81
2022-08-03T22:15:38.353Z,98132.88
2022-08-03T22:18:05.576Z,98137.88
2022-08-03T22:20:32.219Z,98133.88
2022-08-03T22:23:05.432Z,98142.25
2022-08-03T22:25:35.351Z,98144.44
2022-08-03T22:28:06.704Z,98149.31
2022-08-03T22:30:33.665Z,98139.91
2022-08-03T22:33:02.802Z,98139.22
2022-08-03T22:35:32.066Z,98143.13
2022-08-03T22:38:11.145Z,98141.84
2022-08-03T22:40:38.812Z,98141.22
2022-08-03T22:43:08.559Z,98142.53
2022-08-03T22:46:06.228Z,98146.97
2022-08-03T22:48:22.702Z,98156.97
2022-08-03T22:50:49.571Z,98167.31
2022-08-03T22:53:21.696Z,98161.59
2022-08-03T22:55:51.635Z,98162.28
2022-08-03T22:58:22.685Z,98154.81
2022-08-03T23:00:56.602Z,98158.47
2022-08-03T23:03:58.934Z,98157.91
2022-08-03T23:06:19.727Z,98158.34
2022-08-03T23:08:47.622Z,98157.38
2022-08-03T23:11:17.431Z,98153.25
2022-08-03T23:13:51.424Z,98159.97
2022-08-03T23:16:28.770Z,98150.25
2022-08-03T23:18:56.444Z,98155.09
2022-08-03T23:21:59.947Z,98154.09
2022-08-03T23:24:25.962Z,98160.31
2022-08-03T23:26:57.616Z,98160.94
2022-08-03T23:29:26.115Z,98160.31
2022-08-03T23:31:53.682Z,98156.06
2022-08-03T23:34:40.351Z,98155.94
2022-08-03T23:37:06.873Z,98154.78
2022-08-03T23:39:35.214Z,98159.50
2022-08-03T23:42:02.872Z,98162.47
2022-08-03T23:44:31.220Z,98163.59
2022-08-03T23:46:57.865Z,98156.41
2022-08-03T23:49:24.456Z,98157.19
2022-08-03T23:52:06.391Z,98157.91
2022-08-03T23:54:53.219Z,98157.44
2022-08-03T23:57:45.468Z,98167.38
